sensor_id;sensor_type;location;lat;lon;timestamp;P1;durP1;ratioP1;P2;durP2;ratioP2
9496;SDS011;4786;51.270;4.456;2023-08-31T00:01:00;4.77;;;2.50;;
9496;SDS011;4786;51.270;4.456;2023-08-31T00:03:26;3.07;;;2.53;;
9496;SDS011;4786;51.270;4.456;2023-08-31T00:05:53;5.60;;;2.97;;
9496;SDS011;4786;51.270;4.456;2023-08-31T00:08:19;2.80;;;2.60;;
9496;SDS011;4786;51.270;4.456;2023-08-31T00:10:47;4.47;;;2.80;;
9496;SDS011;4786;51.270;4.456;2023-08-31T00:13:23;3.83;;;2.67;;
9496;SDS011;4786;51.270;4.456;2023-08-31T00:15:50;2.50;;;2.30;;
9496;SDS011;4786;51.270;4.456;2023-08-31T00:18:15;3.03;;;2.57;;
9496;SDS011;4786;51.270;4.456;2023-08-31T00:20:41;3.80;;;2.70;;
9496;SDS011;4786;51.270;4.456;2023-08-31T00:23:08;2.63;;;2.40;;
9496;SDS011;4786;51.270;4.456;2023-08-31T00:25:34;3.20;;;2.90;;
9496;SDS011;4786;51.270;4.456;2023-08-31T00:28:00;4.07;;;3.00;;
9496;SDS011;4786;51.270;4.456;2023-08-31T00:30:30;3.20;;;2.90;;
9496;SDS011;4786;51.270;4.456;2023-08-31T00:32:57;3.07;;;2.63;;
9496;SDS011;4786;51.270;4.456;2023-08-31T00:35:25;3.60;;;2.73;;
9496;SDS011;4786;51.270;4.456;2023-08-31T00:37:52;4.27;;;3.20;;
9496;SDS011;4786;51.270;4.456;2023-08-31T00:40:23;4.33;;;2.93;;
9496;SDS011;4786;51.270;4.456;2023-08-31T00:42:50;4.97;;;3.00;;
9496;SDS011;4786;51.270;4.456;2023-08-31T00:45:17;3.23;;;3.00;;
9496;SDS011;4786;51.270;4.456;2023-08-31T00:47:44;4.03;;;3.17;;
9496;SDS011;4786;51.270;4.456;2023-08-31T00:50:12;3.93;;;3.20;;
9496;SDS011;4786;51.270;4.456;2023-08-31T00:52:38;3.33;;;3.03;;
9496;SDS011;4786;51.270;4.456;2023-08-31T00:55:05;5.23;;;3.37;;
9496;SDS011;4786;51.270;4.456;2023-08-31T00:57:31;3.77;;;3.47;;
9496;SDS011;4786;51.270;4.456;2023-08-31T00:59:57;3.90;;;3.50;;
9496;SDS011;4786;51.270;4.456;2023-08-31T01:08:25;3.73;;;3.33;;
9496;SDS011;4786;51.270;4.456;2023-08-31T01:11:12;3.93;;;3.63;;
9496;SDS011;4786;51.270;4.456;2023-08-31T01:13:55;3.60;;;3.30;;
9496;SDS011;4786;51.270;4.456;2023-08-31T01:16:33;4.20;;;3.30;;
9496;SDS011;4786;51.270;4.456;2023-08-31T01:19:04;4.63;;;3.67;;
9496;SDS011;4786;51.270;4.456;2023-08-31T01:21:37;5.63;;;3.40;;
9496;SDS011;4786;51.270;4.456;2023-08-31T01:24:07;4.83;;;3.57;;
9496;SDS011;4786;51.270;4.456;2023-08-31T01:26:35;5.17;;;3.67;;
9496;SDS011;4786;51.270;4.456;2023-08-31T01:29:02;4.37;;;3.70;;
9496;SDS011;4786;51.270;4.456;2023-08-31T01:31:27;3.60;;;3.30;;
9496;SDS011;4786;51.270;4.456;2023-08-31T01:33:54;6.57;;;4.03;;
9496;SDS011;4786;51.270;4.456;2023-08-31T01:36:23;6.00;;;3.70;;
9496;SDS011;4786;51.270;4.456;2023-08-31T01:39:03;4.40;;;3.70;;
9496;SDS011;4786;51.270;4.456;2023-08-31T01:41:34;5.47;;;4.30;;
9496;SDS011;4786;51.270;4.456;2023-08-31T01:44:01;4.60;;;3.97;;
9496;SDS011;4786;51.270;4.456;2023-08-31T01:46:28;4.57;;;3.80;;
9496;SDS011;4786;51.270;4.456;2023-08-31T01:48:56;4.30;;;3.70;;
9496;SDS011;4786;51.270;4.456;2023-08-31T01:51:22;5.30;;;4.17;;
9496;SDS011;4786;51.270;4.456;2023-08-31T01:53:47;4.77;;;4.07;;
9496;SDS011;4786;51.270;4.456;2023-08-31T01:56:14;5.17;;;4.10;;
9496;SDS011;4786;51.270;4.456;2023-08-31T01:58:41;5.40;;;3.83;;
9496;SDS011;4786;51.270;4.456;2023-08-31T02:01:06;5.00;;;4.10;;
9496;SDS011;4786;51.270;4.456;2023-08-31T02:03:32;4.70;;;4.13;;
9496;SDS011;4786;51.270;4.456;2023-08-31T02:05:59;4.50;;;4.10;;
9496;SDS011;4786;51.270;4.456;2023-08-31T02:08:25;5.20;;;4.23;;
9496;SDS011;4786;51.270;4.456;2023-08-31T02:10:51;4.73;;;4.13;;
9496;SDS011;4786;51.270;4.456;2023-08-31T02:13:19;5.43;;;4.77;;
9496;SDS011;4786;51.270;4.456;2023-08-31T02:15:45;5.03;;;4.40;;
9496;SDS011;4786;51.270;4.456;2023-08-31T02:18:10;6.83;;;4.57;;
9496;SDS011;4786;51.270;4.456;2023-08-31T02:20:36;7.63;;;4.20;;
9496;SDS011;4786;51.270;4.456;2023-08-31T02:23:02;5.83;;;4.50;;
9496;SDS011;4786;51.270;4.456;2023-08-31T02:25:28;5.33;;;4.40;;
9496;SDS011;4786;51.270;4.456;2023-08-31T02:27:54;4.43;;;4.03;;
9496;SDS011;4786;51.270;4.456;2023-08-31T02:30:21;6.30;;;5.27;;
9496;SDS011;4786;51.270;4.456;2023-08-31T02:32:47;6.90;;;4.70;;
9496;SDS011;4786;51.270;4.456;2023-08-31T02:35:13;5.60;;;4.50;;
9496;SDS011;4786;51.270;4.456;2023-08-31T02:37:39;5.13;;;4.33;;
9496;SDS011;4786;51.270;4.456;2023-08-31T02:40:06;5.00;;;4.50;;
9496;SDS011;4786;51.270;4.456;2023-08-31T02:42:33;5.23;;;3.90;;
9496;SDS011;4786;51.270;4.456;2023-08-31T02:44:59;4.40;;;4.00;;
9496;SDS011;4786;51.270;4.456;2023-08-31T02:47:25;4.63;;;4.07;;
9496;SDS011;4786;51.270;4.456;2023-08-31T02:49:51;5.47;;;4.57;;
9496;SDS011;4786;51.270;4.456;2023-08-31T02:52:18;4.63;;;4.10;;
9496;SDS011;4786;51.270;4.456;2023-08-31T02:54:44;4.80;;;4.23;;
9496;SDS011;4786;51.270;4.456;2023-08-31T02:57:10;6.10;;;4.80;;
9496;SDS011;4786;51.270;4.456;2023-08-31T02:59:36;5.67;;;4.33;;
9496;SDS011;4786;51.270;4.456;2023-08-31T03:02:02;6.37;;;4.30;;
9496;SDS011;4786;51.270;4.456;2023-08-31T03:04:29;5.60;;;4.10;;
9496;SDS011;4786;51.270;4.456;2023-08-31T03:06:55;5.90;;;4.17;;
9496;SDS011;4786;51.270;4.456;2023-08-31T03:09:21;5.63;;;4.40;;
9496;SDS011;4786;51.270;4.456;2023-08-31T03:11:47;4.47;;;4.07;;
9496;SDS011;4786;51.270;4.456;2023-08-31T03:14:12;6.33;;;4.47;;
9496;SDS011;4786;51.270;4.456;2023-08-31T03:16:38;5.00;;;4.40;;
9496;SDS011;4786;51.270;4.456;2023-08-31T03:19:05;5.40;;;4.33;;
9496;SDS011;4786;51.270;4.456;2023-08-31T03:21:31;5.93;;;4.23;;
9496;SDS011;4786;51.270;4.456;2023-08-31T03:23:57;5.73;;;4.37;;
9496;SDS011;4786;51.270;4.456;2023-08-31T03:26:23;4.53;;;4.13;;
9496;SDS011;4786;51.270;4.456;2023-08-31T03:28:48;6.00;;;4.20;;
9496;SDS011;4786;51.270;4.456;2023-08-31T03:31:14;4.90;;;4.10;;
9496;SDS011;4786;51.270;4.456;2023-08-31T03:33:41;4.27;;;3.83;;
9496;SDS011;4786;51.270;4.456;2023-08-31T03:36:06;5.40;;;4.30;;
9496;SDS011;4786;51.270;4.456;2023-08-31T03:38:33;5.13;;;3.83;;
9496;SDS011;4786;51.270;4.456;2023-08-31T03:41:05;5.70;;;4.33;;
9496;SDS011;4786;51.270;4.456;2023-08-31T03:43:31;5.80;;;3.93;;
9496;SDS011;4786;51.270;4.456;2023-08-31T03:45:58;5.93;;;4.20;;
9496;SDS011;4786;51.270;4.456;2023-08-31T03:48:25;4.87;;;4.37;;
9496;SDS011;4786;51.270;4.456;2023-08-31T03:50:51;4.60;;;3.80;;
9496;SDS011;4786;51.270;4.456;2023-08-31T03:53:18;5.93;;;4.20;;
9496;SDS011;4786;51.270;4.456;2023-08-31T03:55:44;5.37;;;4.00;;
9496;SDS011;4786;51.270;4.456;2023-08-31T03:58:11;7.40;;;4.60;;
9496;SDS011;4786;51.270;4.456;2023-08-31T04:00:37;4.40;;;3.90;;
9496;SDS011;4786;51.270;4.456;2023-08-31T04:03:04;4.43;;;4.03;;
9496;SDS011;4786;51.270;4.456;2023-08-31T04:05:33;4.80;;;4.20;;
9496;SDS011;4786;51.270;4.456;2023-08-31T04:08:00;4.93;;;4.43;;
9496;SDS011;4786;51.270;4.456;2023-08-31T04:10:26;4.57;;;4.10;;
9496;SDS011;4786;51.270;4.456;2023-08-31T04:12:52;7.23;;;4.30;;
9496;SDS011;4786;51.270;4.456;2023-08-31T04:15:18;5.83;;;4.10;;
9496;SDS011;4786;51.270;4.456;2023-08-31T04:17:45;5.47;;;4.33;;
9496;SDS011;4786;51.270;4.456;2023-08-31T04:20:11;5.47;;;4.50;;
9496;SDS011;4786;51.270;4.456;2023-08-31T04:22:37;6.33;;;4.50;;
9496;SDS011;4786;51.270;4.456;2023-08-31T04:25:03;9.90;;;4.97;;
9496;SDS011;4786;51.270;4.456;2023-08-31T04:27:29;6.23;;;4.33;;
9496;SDS011;4786;51.270;4.456;2023-08-31T04:29:58;5.20;;;4.27;;
9496;SDS011;4786;51.270;4.456;2023-08-31T04:32:24;5.17;;;4.70;;
9496;SDS011;4786;51.270;4.456;2023-08-31T04:34:50;8.30;;;4.87;;
9496;SDS011;4786;51.270;4.456;2023-08-31T04:37:16;7.10;;;4.93;;
9496;SDS011;4786;51.270;4.456;2023-08-31T04:39:43;5.30;;;4.80;;
9496;SDS011;4786;51.270;4.456;2023-08-31T04:42:08;6.10;;;5.47;;
9496;SDS011;4786;51.270;4.456;2023-08-31T04:44:34;5.77;;;5.27;;
9496;SDS011;4786;51.270;4.456;2023-08-31T04:47:01;7.07;;;5.30;;
9496;SDS011;4786;51.270;4.456;2023-08-31T04:49:27;6.30;;;5.33;;
9496;SDS011;4786;51.270;4.456;2023-08-31T04:51:53;6.83;;;5.80;;
9496;SDS011;4786;51.270;4.456;2023-08-31T04:54:20;8.20;;;6.63;;
9496;SDS011;4786;51.270;4.456;2023-08-31T04:56:46;8.43;;;6.30;;
9496;SDS011;4786;51.270;4.456;2023-08-31T04:59:12;7.00;;;6.30;;
9496;SDS011;4786;51.270;4.456;2023-08-31T05:01:38;8.10;;;6.63;;
9496;SDS011;4786;51.270;4.456;2023-08-31T05:04:04;8.03;;;7.33;;
9496;SDS011;4786;51.270;4.456;2023-08-31T05:06:30;10.43;;;7.10;;
9496;SDS011;4786;51.270;4.456;2023-08-31T05:08:56;8.33;;;6.90;;
9496;SDS011;4786;51.270;4.456;2023-08-31T05:11:23;7.97;;;6.87;;
9496;SDS011;4786;51.270;4.456;2023-08-31T05:13:49;8.67;;;6.97;;
9496;SDS011;4786;51.270;4.456;2023-08-31T05:16:16;8.20;;;6.47;;
9496;SDS011;4786;51.270;4.456;2023-08-31T05:18:42;7.43;;;6.70;;
9496;SDS011;4786;51.270;4.456;2023-08-31T05:21:08;9.27;;;7.23;;
9496;SDS011;4786;51.270;4.456;2023-08-31T05:23:33;8.77;;;7.30;;
9496;SDS011;4786;51.270;4.456;2023-08-31T05:25:59;8.27;;;7.47;;
9496;SDS011;4786;51.270;4.456;2023-08-31T05:28:26;11.40;;;8.53;;
9496;SDS011;4786;51.270;4.456;2023-08-31T05:30:54;9.17;;;7.90;;
9496;SDS011;4786;51.270;4.456;2023-08-31T05:33:22;9.73;;;8.43;;
9496;SDS011;4786;51.270;4.456;2023-08-31T05:35:48;10.27;;;8.27;;
9496;SDS011;4786;51.270;4.456;2023-08-31T05:38:14;12.90;;;8.90;;
9496;SDS011;4786;51.270;4.456;2023-08-31T05:40:40;10.40;;;8.30;;
9496;SDS011;4786;51.270;4.456;2023-08-31T05:43:10;9.27;;;7.70;;
9496;SDS011;4786;51.270;4.456;2023-08-31T05:45:36;10.40;;;7.77;;
9496;SDS011;4786;51.270;4.456;2023-08-31T05:48:02;8.63;;;7.63;;
9496;SDS011;4786;51.270;4.456;2023-08-31T05:50:29;8.13;;;6.53;;
9496;SDS011;4786;51.270;4.456;2023-08-31T05:52:55;13.40;;;9.33;;
9496;SDS011;4786;51.270;4.456;2023-08-31T05:55:21;11.83;;;7.93;;
9496;SDS011;4786;51.270;4.456;2023-08-31T05:57:47;11.03;;;8.30;;
9496;SDS011;4786;51.270;4.456;2023-08-31T06:00:13;10.33;;;8.30;;
9496;SDS011;4786;51.270;4.456;2023-08-31T06:02:40;9.33;;;7.83;;
9496;SDS011;4786;51.270;4.456;2023-08-31T06:05:05;18.73;;;9.77;;
9496;SDS011;4786;51.270;4.456;2023-08-31T06:07:33;10.80;;;9.77;;
9496;SDS011;4786;51.270;4.456;2023-08-31T06:09:58;13.97;;;10.57;;
9496;SDS011;4786;51.270;4.456;2023-08-31T06:12:24;11.87;;;10.13;;
9496;SDS011;4786;51.270;4.456;2023-08-31T06:14:50;10.43;;;8.03;;
9496;SDS011;4786;51.270;4.456;2023-08-31T06:17:16;15.43;;;10.00;;
9496;SDS011;4786;51.270;4.456;2023-08-31T06:19:43;11.67;;;9.30;;
9496;SDS011;4786;51.270;4.456;2023-08-31T06:22:09;12.20;;;9.33;;
9496;SDS011;4786;51.270;4.456;2023-08-31T06:24:35;10.80;;;8.70;;
9496;SDS011;4786;51.270;4.456;2023-08-31T06:27:02;9.33;;;8.33;;
9496;SDS011;4786;51.270;4.456;2023-08-31T06:29:28;17.73;;;9.10;;
9496;SDS011;4786;51.270;4.456;2023-08-31T06:31:54;11.10;;;8.93;;
9496;SDS011;4786;51.270;4.456;2023-08-31T06:34:20;10.07;;;8.50;;
9496;SDS011;4786;51.270;4.456;2023-08-31T06:36:47;15.63;;;8.60;;
9496;SDS011;4786;51.270;4.456;2023-08-31T06:39:13;12.17;;;7.27;;
9496;SDS011;4786;51.270;4.456;2023-08-31T06:41:40;12.50;;;7.57;;
9496;SDS011;4786;51.270;4.456;2023-08-31T06:44:06;8.67;;;6.77;;
9496;SDS011;4786;51.270;4.456;2023-08-31T06:46:32;10.70;;;6.70;;
9496;SDS011;4786;51.270;4.456;2023-08-31T06:49:02;14.70;;;6.23;;
9496;SDS011;4786;51.270;4.456;2023-08-31T06:51:29;10.33;;;6.57;;
9496;SDS011;4786;51.270;4.456;2023-08-31T06:53:56;10.57;;;6.30;;
9496;SDS011;4786;51.270;4.456;2023-08-31T06:56:27;8.83;;;5.60;;
9496;SDS011;4786;51.270;4.456;2023-08-31T06:58:53;8.33;;;5.83;;
9496;SDS011;4786;51.270;4.456;2023-08-31T07:01:19;13.00;;;6.37;;
9496;SDS011;4786;51.270;4.456;2023-08-31T07:03:45;10.63;;;6.30;;
9496;SDS011;4786;51.270;4.456;2023-08-31T07:06:11;10.40;;;6.20;;
9496;SDS011;4786;51.270;4.456;2023-08-31T07:08:36;9.43;;;6.17;;
9496;SDS011;4786;51.270;4.456;2023-08-31T07:11:05;9.97;;;6.13;;
9496;SDS011;4786;51.270;4.456;2023-08-31T07:13:32;8.07;;;5.63;;
9496;SDS011;4786;51.270;4.456;2023-08-31T07:15:57;7.57;;;5.77;;
9496;SDS011;4786;51.270;4.456;2023-08-31T07:18:24;11.67;;;6.47;;
9496;SDS011;4786;51.270;4.456;2023-08-31T07:20:50;9.80;;;6.23;;
9496;SDS011;4786;51.270;4.456;2023-08-31T07:23:16;10.20;;;6.67;;
9496;SDS011;4786;51.270;4.456;2023-08-31T07:25:42;7.23;;;5.70;;
9496;SDS011;4786;51.270;4.456;2023-08-31T07:28:08;9.23;;;5.80;;
9496;SDS011;4786;51.270;4.456;2023-08-31T07:30:35;9.77;;;5.70;;
9496;SDS011;4786;51.270;4.456;2023-08-31T07:33:02;12.43;;;5.77;;
9496;SDS011;4786;51.270;4.456;2023-08-31T07:35:29;9.20;;;6.10;;
9496;SDS011;4786;51.270;4.456;2023-08-31T07:37:56;10.67;;;7.50;;
9496;SDS011;4786;51.270;4.456;2023-08-31T07:40:22;12.13;;;6.37;;
9496;SDS011;4786;51.270;4.456;2023-08-31T07:42:48;9.13;;;6.17;;
9496;SDS011;4786;51.270;4.456;2023-08-31T07:45:16;13.10;;;6.67;;
9496;SDS011;4786;51.270;4.456;2023-08-31T07:47:42;11.60;;;6.67;;
9496;SDS011;4786;51.270;4.456;2023-08-31T07:50:09;9.53;;;6.50;;
9496;SDS011;4786;51.270;4.456;2023-08-31T07:52:36;9.13;;;5.93;;
9496;SDS011;4786;51.270;4.456;2023-08-31T07:55:03;11.30;;;5.73;;
9496;SDS011;4786;51.270;4.456;2023-08-31T07:57:29;10.07;;;5.40;;
9496;SDS011;4786;51.270;4.456;2023-08-31T07:59:55;10.77;;;6.00;;
9496;SDS011;4786;51.270;4.456;2023-08-31T08:02:21;10.20;;;5.10;;
9496;SDS011;4786;51.270;4.456;2023-08-31T08:04:47;10.97;;;5.13;;
9496;SDS011;4786;51.270;4.456;2023-08-31T08:07:13;9.17;;;5.57;;
9496;SDS011;4786;51.270;4.456;2023-08-31T08:09:40;9.07;;;5.23;;
9496;SDS011;4786;51.270;4.456;2023-08-31T08:12:06;9.33;;;4.47;;
9496;SDS011;4786;51.270;4.456;2023-08-31T08:14:33;10.80;;;5.03;;
9496;SDS011;4786;51.270;4.456;2023-08-31T08:16:59;8.23;;;4.77;;
9496;SDS011;4786;51.270;4.456;2023-08-31T08:19:25;9.33;;;4.70;;
9496;SDS011;4786;51.270;4.456;2023-08-31T08:21:51;11.40;;;5.03;;
9496;SDS011;4786;51.270;4.456;2023-08-31T08:24:17;8.53;;;4.63;;
9496;SDS011;4786;51.270;4.456;2023-08-31T08:26:43;6.47;;;4.43;;
9496;SDS011;4786;51.270;4.456;2023-08-31T08:29:10;6.73;;;3.80;;
9496;SDS011;4786;51.270;4.456;2023-08-31T08:31:36;10.53;;;4.70;;
9496;SDS011;4786;51.270;4.456;2023-08-31T08:34:02;9.50;;;4.83;;
9496;SDS011;4786;51.270;4.456;2023-08-31T08:36:29;10.50;;;5.30;;
9496;SDS011;4786;51.270;4.456;2023-08-31T08:38:55;10.73;;;5.87;;
9496;SDS011;4786;51.270;4.456;2023-08-31T08:41:23;9.77;;;4.80;;
9496;SDS011;4786;51.270;4.456;2023-08-31T08:43:50;9.57;;;4.90;;
9496;SDS011;4786;51.270;4.456;2023-08-31T08:46:17;6.70;;;4.50;;
9496;SDS011;4786;51.270;4.456;2023-08-31T08:48:46;10.27;;;4.60;;
9496;SDS011;4786;51.270;4.456;2023-08-31T08:51:13;8.10;;;4.73;;
9496;SDS011;4786;51.270;4.456;2023-08-31T08:53:43;5.77;;;4.03;;
9496;SDS011;4786;51.270;4.456;2023-08-31T08:56:08;9.70;;;4.67;;
9496;SDS011;4786;51.270;4.456;2023-08-31T08:58:34;9.10;;;3.87;;
9496;SDS011;4786;51.270;4.456;2023-08-31T09:01:00;6.50;;;4.00;;
9496;SDS011;4786;51.270;4.456;2023-08-31T09:03:28;11.43;;;4.50;;
9496;SDS011;4786;51.270;4.456;2023-08-31T09:05:54;8.00;;;4.33;;
9496;SDS011;4786;51.270;4.456;2023-08-31T09:08:26;8.60;;;4.13;;
9496;SDS011;4786;51.270;4.456;2023-08-31T09:10:55;10.27;;;4.50;;
9496;SDS011;4786;51.270;4.456;2023-08-31T09:13:25;6.83;;;3.90;;
9496;SDS011;4786;51.270;4.456;2023-08-31T09:15:54;7.27;;;3.40;;
9496;SDS011;4786;51.270;4.456;2023-08-31T09:18:27;7.60;;;3.73;;
9496;SDS011;4786;51.270;4.456;2023-08-31T09:20:54;7.40;;;4.00;;
9496;SDS011;4786;51.270;4.456;2023-08-31T09:23:24;7.90;;;3.50;;
9496;SDS011;4786;51.270;4.456;2023-08-31T09:25:54;9.23;;;3.90;;
9496;SDS011;4786;51.270;4.456;2023-08-31T09:28:21;11.43;;;4.00;;
9496;SDS011;4786;51.270;4.456;2023-08-31T09:30:49;9.77;;;4.18;;
9496;SDS011;4786;51.270;4.456;2023-08-31T09:33:16;14.53;;;4.30;;
9496;SDS011;4786;51.270;4.456;2023-08-31T09:38:17;8.00;;;3.80;;
9496;SDS011;4786;51.270;4.456;2023-08-31T09:40:43;9.70;;;3.97;;
9496;SDS011;4786;51.270;4.456;2023-08-31T09:43:09;7.60;;;3.88;;
9496;SDS011;4786;51.270;4.456;2023-08-31T09:45:35;8.95;;;3.90;;
9496;SDS011;4786;51.270;4.456;2023-08-31T09:48:04;9.80;;;3.78;;
9496;SDS011;4786;51.270;4.456;2023-08-31T09:50:31;7.15;;;3.45;;
9496;SDS011;4786;51.270;4.456;2023-08-31T09:53:04;6.65;;;3.10;;
9496;SDS011;4786;51.270;4.456;2023-08-31T09:55:32;6.93;;;3.38;;
9496;SDS011;4786;51.270;4.456;2023-08-31T09:58:00;9.18;;;3.78;;
9496;SDS011;4786;51.270;4.456;2023-08-31T10:00:30;13.43;;;3.38;;
9496;SDS011;4786;51.270;4.456;2023-08-31T10:03:00;7.50;;;3.50;;
9496;SDS011;4786;51.270;4.456;2023-08-31T10:05:28;7.40;;;3.40;;
9496;SDS011;4786;51.270;4.456;2023-08-31T10:07:54;6.20;;;3.13;;
9496;SDS011;4786;51.270;4.456;2023-08-31T10:10:21;5.70;;;3.20;;
9496;SDS011;4786;51.270;4.456;2023-08-31T10:12:50;5.90;;;3.35;;
9496;SDS011;4786;51.270;4.456;2023-08-31T10:15:17;7.78;;;3.50;;
9496;SDS011;4786;51.270;4.456;2023-08-31T10:17:44;8.48;;;3.40;;
9496;SDS011;4786;51.270;4.456;2023-08-31T10:20:12;8.85;;;3.17;;
9496;SDS011;4786;51.270;4.456;2023-08-31T10:22:41;8.63;;;3.40;;
9496;SDS011;4786;51.270;4.456;2023-08-31T10:25:07;6.70;;;3.63;;
9496;SDS011;4786;51.270;4.456;2023-08-31T10:27:38;7.20;;;3.38;;
9496;SDS011;4786;51.270;4.456;2023-08-31T10:33:02;9.15;;;3.42;;
9496;SDS011;4786;51.270;4.456;2023-08-31T10:35:53;6.03;;;3.70;;
9496;SDS011;4786;51.270;4.456;2023-08-31T10:41:26;5.00;;;3.10;;
9496;SDS011;4786;51.270;4.456;2023-08-31T10:43:45;4.32;;;2.45;;
9496;SDS011;4786;51.270;4.456;2023-08-31T10:46:18;6.70;;;2.78;;
9496;SDS011;4786;51.270;4.456;2023-08-31T10:51:37;6.65;;;3.13;;
9496;SDS011;4786;51.270;4.456;2023-08-31T10:54:08;7.25;;;3.30;;
9496;SDS011;4786;51.270;4.456;2023-08-31T11:07:30;5.88;;;2.92;;
9496;SDS011;4786;51.270;4.456;2023-08-31T11:12:46;9.75;;;2.90;;
9496;SDS011;4786;51.270;4.456;2023-08-31T11:15:15;6.18;;;2.95;;
9496;SDS011;4786;51.270;4.456;2023-08-31T11:17:43;5.88;;;3.20;;
9496;SDS011;4786;51.270;4.456;2023-08-31T11:20:13;6.60;;;2.60;;
9496;SDS011;4786;51.270;4.456;2023-08-31T11:22:41;5.85;;;2.80;;
9496;SDS011;4786;51.270;4.456;2023-08-31T11:25:10;4.10;;;2.92;;
9496;SDS011;4786;51.270;4.456;2023-08-31T11:27:38;4.85;;;3.00;;
9496;SDS011;4786;51.270;4.456;2023-08-31T11:30:10;5.75;;;2.88;;
9496;SDS011;4786;51.270;4.456;2023-08-31T11:32:42;4.70;;;2.90;;
9496;SDS011;4786;51.270;4.456;2023-08-31T11:35:13;5.35;;;2.90;;
9496;SDS011;4786;51.270;4.456;2023-08-31T11:37:41;6.32;;;2.50;;
9496;SDS011;4786;51.270;4.456;2023-08-31T11:40:08;6.93;;;2.72;;
9496;SDS011;4786;51.270;4.456;2023-08-31T11:42:35;6.32;;;2.58;;
9496;SDS011;4786;51.270;4.456;2023-08-31T11:45:01;6.68;;;2.90;;
9496;SDS011;4786;51.270;4.456;2023-08-31T11:47:30;4.57;;;2.55;;
9496;SDS011;4786;51.270;4.456;2023-08-31T11:49:57;5.20;;;2.50;;
9496;SDS011;4786;51.270;4.456;2023-08-31T11:52:25;4.55;;;2.10;;
9496;SDS011;4786;51.270;4.456;2023-08-31T11:54:52;4.88;;;2.47;;
9496;SDS011;4786;51.270;4.456;2023-08-31T11:57:18;5.30;;;2.55;;
9496;SDS011;4786;51.270;4.456;2023-08-31T11:59:51;5.75;;;2.75;;
9496;SDS011;4786;51.270;4.456;2023-08-31T12:02:20;4.32;;;2.13;;
9496;SDS011;4786;51.270;4.456;2023-08-31T12:04:46;5.18;;;2.58;;
9496;SDS011;4786;51.270;4.456;2023-08-31T12:07:17;3.95;;;2.40;;
9496;SDS011;4786;51.270;4.456;2023-08-31T12:09:43;5.65;;;2.40;;
9496;SDS011;4786;51.270;4.456;2023-08-31T12:12:10;7.57;;;2.80;;
9496;SDS011;4786;51.270;4.456;2023-08-31T12:14:37;3.20;;;2.30;;
9496;SDS011;4786;51.270;4.456;2023-08-31T12:17:23;4.88;;;2.42;;
9496;SDS011;4786;51.270;4.456;2023-08-31T12:19:49;6.38;;;2.85;;
9496;SDS011;4786;51.270;4.456;2023-08-31T12:22:15;5.32;;;2.53;;
9496;SDS011;4786;51.270;4.456;2023-08-31T12:24:41;4.50;;;2.33;;
9496;SDS011;4786;51.270;4.456;2023-08-31T12:27:09;5.30;;;2.78;;
9496;SDS011;4786;51.270;4.456;2023-08-31T12:29:36;6.30;;;2.72;;
9496;SDS011;4786;51.270;4.456;2023-08-31T12:32:02;8.38;;;3.00;;
9496;SDS011;4786;51.270;4.456;2023-08-31T12:34:28;6.43;;;2.53;;
9496;SDS011;4786;51.270;4.456;2023-08-31T12:36:57;6.03;;;2.78;;
9496;SDS011;4786;51.270;4.456;2023-08-31T12:39:26;3.92;;;2.55;;
9496;SDS011;4786;51.270;4.456;2023-08-31T12:41:53;4.97;;;3.08;;
9496;SDS011;4786;51.270;4.456;2023-08-31T12:44:19;5.75;;;2.88;;
9496;SDS011;4786;51.270;4.456;2023-08-31T12:46:45;5.57;;;2.92;;
9496;SDS011;4786;51.270;4.456;2023-08-31T12:49:11;4.75;;;2.95;;
9496;SDS011;4786;51.270;4.456;2023-08-31T12:51:38;5.43;;;3.17;;
9496;SDS011;4786;51.270;4.456;2023-08-31T12:54:04;4.30;;;2.80;;
9496;SDS011;4786;51.270;4.456;2023-08-31T12:56:30;4.55;;;2.80;;
9496;SDS011;4786;51.270;4.456;2023-08-31T12:58:56;8.00;;;2.83;;
9496;SDS011;4786;51.270;4.456;2023-08-31T13:01:22;4.80;;;2.80;;
9496;SDS011;4786;51.270;4.456;2023-08-31T13:03:48;6.03;;;2.60;;
9496;SDS011;4786;51.270;4.456;2023-08-31T13:06:14;5.43;;;2.88;;
9496;SDS011;4786;51.270;4.456;2023-08-31T13:08:44;5.32;;;2.50;;
9496;SDS011;4786;51.270;4.456;2023-08-31T13:11:10;4.55;;;2.65;;
9496;SDS011;4786;51.270;4.456;2023-08-31T13:13:37;4.68;;;2.83;;
9496;SDS011;4786;51.270;4.456;2023-08-31T13:16:04;5.95;;;2.35;;
9496;SDS011;4786;51.270;4.456;2023-08-31T13:18:30;3.55;;;2.33;;
9496;SDS011;4786;51.270;4.456;2023-08-31T13:20:56;5.50;;;2.63;;
9496;SDS011;4786;51.270;4.456;2023-08-31T13:23:23;7.28;;;3.10;;
9496;SDS011;4786;51.270;4.456;2023-08-31T13:25:49;8.38;;;2.90;;
9496;SDS011;4786;51.270;4.456;2023-08-31T13:28:16;3.67;;;2.10;;
9496;SDS011;4786;51.270;4.456;2023-08-31T13:30:42;5.90;;;2.65;;
9496;SDS011;4786;51.270;4.456;2023-08-31T13:33:08;3.08;;;2.15;;
9496;SDS011;4786;51.270;4.456;2023-08-31T13:35:34;3.75;;;2.40;;
9496;SDS011;4786;51.270;4.456;2023-08-31T13:38:01;4.60;;;2.70;;
9496;SDS011;4786;51.270;4.456;2023-08-31T13:40:28;3.72;;;2.10;;
9496;SDS011;4786;51.270;4.456;2023-08-31T13:42:55;5.30;;;2.50;;
9496;SDS011;4786;51.270;4.456;2023-08-31T13:45:24;5.53;;;2.30;;
9496;SDS011;4786;51.270;4.456;2023-08-31T13:47:50;5.65;;;2.60;;
9496;SDS011;4786;51.270;4.456;2023-08-31T13:50:17;6.53;;;2.53;;
9496;SDS011;4786;51.270;4.456;2023-08-31T13:52:43;5.75;;;2.55;;
9496;SDS011;4786;51.270;4.456;2023-08-31T13:55:10;5.75;;;2.50;;
9496;SDS011;4786;51.270;4.456;2023-08-31T13:57:36;5.15;;;2.50;;
9496;SDS011;4786;51.270;4.456;2023-08-31T14:00:03;8.43;;;2.47;;
9496;SDS011;4786;51.270;4.456;2023-08-31T14:02:33;6.07;;;2.28;;
9496;SDS011;4786;51.270;4.456;2023-08-31T14:04:59;4.78;;;2.42;;
9496;SDS011;4786;51.270;4.456;2023-08-31T14:07:25;5.90;;;2.63;;
9496;SDS011;4786;51.270;4.456;2023-08-31T14:09:51;4.50;;;2.45;;
9496;SDS011;4786;51.270;4.456;2023-08-31T14:12:16;4.35;;;2.50;;
9496;SDS011;4786;51.270;4.456;2023-08-31T14:14:42;8.07;;;2.80;;
9496;SDS011;4786;51.270;4.456;2023-08-31T14:17:11;4.50;;;2.50;;
9496;SDS011;4786;51.270;4.456;2023-08-31T14:19:37;3.63;;;2.40;;
9496;SDS011;4786;51.270;4.456;2023-08-31T14:22:04;8.50;;;2.90;;
9496;SDS011;4786;51.270;4.456;2023-08-31T14:24:30;4.85;;;2.30;;
9496;SDS011;4786;51.270;4.456;2023-08-31T14:26:57;5.55;;;2.97;;
9496;SDS011;4786;51.270;4.456;2023-08-31T14:29:23;5.95;;;2.67;;
9496;SDS011;4786;51.270;4.456;2023-08-31T14:31:49;6.63;;;2.42;;
9496;SDS011;4786;51.270;4.456;2023-08-31T14:34:16;5.97;;;2.65;;
9496;SDS011;4786;51.270;4.456;2023-08-31T14:36:42;7.10;;;2.50;;
9496;SDS011;4786;51.270;4.456;2023-08-31T14:39:08;6.55;;;2.85;;
9496;SDS011;4786;51.270;4.456;2023-08-31T14:41:34;6.95;;;2.50;;
9496;SDS011;4786;51.270;4.456;2023-08-31T14:44:01;7.35;;;2.38;;
9496;SDS011;4786;51.270;4.456;2023-08-31T14:46:26;8.20;;;2.63;;
9496;SDS011;4786;51.270;4.456;2023-08-31T14:48:52;6.25;;;2.30;;
9496;SDS011;4786;51.270;4.456;2023-08-31T14:51:18;5.93;;;2.58;;
9496;SDS011;4786;51.270;4.456;2023-08-31T14:53:44;6.60;;;2.10;;
9496;SDS011;4786;51.270;4.456;2023-08-31T14:56:10;4.50;;;2.20;;
9496;SDS011;4786;51.270;4.456;2023-08-31T14:58:36;4.63;;;2.38;;
9496;SDS011;4786;51.270;4.456;2023-08-31T15:01:02;5.20;;;1.95;;
9496;SDS011;4786;51.270;4.456;2023-08-31T15:03:28;5.45;;;2.70;;
9496;SDS011;4786;51.270;4.456;2023-08-31T15:05:54;7.50;;;2.50;;
9496;SDS011;4786;51.270;4.456;2023-08-31T15:08:21;7.53;;;2.40;;
9496;SDS011;4786;51.270;4.456;2023-08-31T15:11:00;6.18;;;2.30;;
9496;SDS011;4786;51.270;4.456;2023-08-31T15:13:27;4.30;;;2.20;;
9496;SDS011;4786;51.270;4.456;2023-08-31T15:15:53;5.68;;;2.30;;
9496;SDS011;4786;51.270;4.456;2023-08-31T15:18:19;8.90;;;2.55;;
9496;SDS011;4786;51.270;4.456;2023-08-31T15:20:45;3.97;;;2.40;;
9496;SDS011;4786;51.270;4.456;2023-08-31T15:23:12;6.78;;;2.28;;
9496;SDS011;4786;51.270;4.456;2023-08-31T15:25:38;5.85;;;2.80;;
9496;SDS011;4786;51.270;4.456;2023-08-31T15:28:05;4.82;;;2.50;;
9496;SDS011;4786;51.270;4.456;2023-08-31T15:30:30;6.63;;;2.40;;
9496;SDS011;4786;51.270;4.456;2023-08-31T15:33:03;5.70;;;2.60;;
9496;SDS011;4786;51.270;4.456;2023-08-31T15:35:30;9.65;;;2.70;;
9496;SDS011;4786;51.270;4.456;2023-08-31T15:37:58;6.72;;;2.78;;
9496;SDS011;4786;51.270;4.456;2023-08-31T15:40:25;7.35;;;2.55;;
9496;SDS011;4786;51.270;4.456;2023-08-31T15:42:51;6.57;;;2.65;;